Time;durP1;ratioP1;P1;durP2;ratioP2;P2;SDS_P1;SDS_P2;PMS_P1;PMS_P2;Temp;Humidity;BMP_temperature;BMP_pressure;BME280_temperature;BME280_humidity;BME280_pressure;Samples;Min_cycle;Max_cycle;Signal;HPM_P1;HPM_P2
2022/08/03 00:01:07;;;;;;;5.53;1.92;;;19.90;99.90;;;;;;5054917;28;35223;-61
2022/08/03 00:03:34;;;;;;;6.88;2.20;;;19.90;99.90;;;;;;5055719;28;39662;-60
2022/08/03 00:06:02;;;;;;;6.43;2.25;;;19.90;99.90;;;;;;5054839;28;37685;-61
2022/08/03 00:08:30;;;;;;;8.48;2.10;;;19.90;99.90;;;;;;5055549;28;36074;-60
2022/08/03 00:10:58;;;;;;;9.13;2.33;;;19.80;99.90;;;;;;5054556;28;35301;-61
2022/08/03 00:13:25;;;;;;;6.18;2.45;;;19.90;99.90;;;;;;5055109;28;36787;-60
2022/08/03 00:15:53;;;;;;;6.68;2.08;;;19.90;99.90;;;;;;5054954;28;39137;-61
2022/08/03 00:18:20;;;;;;;4.55;1.65;;;19.80;99.90;;;;;;5054377;28;36029;-61
2022/08/03 00:20:47;;;;;;;6.88;1.80;;;19.90;99.90;;;;;;5055080;28;36625;-60
2022/08/03 00:23:15;;;;;;;8.05;2.08;;;19.90;99.90;;;;;;5055712;28;37324;-60
2022/08/03 00:25:43;;;;;;;7.35;2.17;;;19.80;99.90;;;;;;5053675;28;36650;-60
2022/08/03 00:28:11;;;;;;;7.15;1.83;;;19.80;99.90;;;;;;5054938;28;36292;-61
2022/08/03 00:30:38;;;;;;;5.55;1.70;;;19.80;99.90;;;;;;5054655;28;38253;-60
2022/08/03 00:33:06;;;;;;;9.07;1.73;;;19.80;99.90;;;;;;5055137;28;37736;-61
2022/08/03 00:35:33;;;;;;;5.13;1.70;;;19.80;99.90;;;;;;5054674;28;36382;-60
2022/08/03 00:38:01;;;;;;;7.97;1.85;;;19.80;99.90;;;;;;5055130;28;37243;-60
2022/08/03 00:40:29;;;;;;;7.38;1.70;;;19.80;99.90;;;;;;5053650;28;35399;-60
2022/08/03 00:42:59;;;;;;;10.88;2.60;;;19.80;99.90;;;;;;5053710;28;36357;-60
2022/08/03 00:45:28;;;;;;;6.50;2.05;;;19.80;99.90;;;;;;5053968;28;37876;-60
2022/08/03 00:47:56;;;;;;;8.43;2.33;;;19.80;99.90;;;;;;5055628;28;37035;-60
2022/08/03 00:50:26;;;;;;;11.27;2.33;;;19.80;99.90;;;;;;5055418;28;35739;-60
2022/08/03 00:52:55;;;;;;;7.82;1.75;;;19.70;99.90;;;;;;5055042;28;38115;-60
2022/08/03 00:55:24;;;;;;;5.53;1.70;;;19.70;99.90;;;;;;5055077;28;20053;-60
2022/08/03 00:57:52;;;;;;;5.85;1.98;;;19.70;99.90;;;;;;5052204;28;37570;-60
2022/08/03 01:00:22;;;;;;;6.05;1.98;;;19.70;99.90;;;;;;5052466;28;36516;-60
2022/08/03 01:02:50;;;;;;;6.93;1.90;;;19.70;99.90;;;;;;5054298;28;39002;-60
2022/08/03 01:05:18;;;;;;;9.75;3.03;;;19.70;99.90;;;;;;5053789;28;38626;-60
2022/08/03 01:07:58;;;;;;;7.85;1.98;;;19.70;99.90;;;;;;5054123;28;37085;-61
2022/08/03 01:10:32;;;;;;;6.20;2.20;;;19.70;99.90;;;;;;5053366;28;37854;-60
2022/08/03 01:13:05;;;;;;;10.60;2.47;;;19.70;99.90;;;;;;5053625;28;36456;-60
2022/08/03 01:15:37;;;;;;;;;;;19.70;99.90;;;;;;5054148;28;40473;-60
2022/08/03 01:18:10;;;;;;;6.55;1.75;;;19.70;99.90;;;;;;5053229;28;38466;-60
2022/08/03 01:20:43;;;;;;;8.68;1.73;;;19.70;99.90;;;;;;5054121;28;37405;-60
2022/08/03 01:23:27;;;;;;;6.38;1.75;;;19.60;99.90;;;;;;5053915;28;37053;-60
2022/08/03 01:26:11;;;;;;;6.30;2.20;;;19.70;99.90;;;;;;5054072;28;37877;-61
2022/08/03 01:28:56;;;;;;;11.18;1.75;;;19.60;99.90;;;;;;5053761;28;37439;-61
2022/08/03 01:31:29;;;;;;;6.43;1.55;;;19.60;99.90;;;;;;5054284;28;36835;-64
2022/08/03 01:34:00;;;;;;;6.78;1.75;;;19.60;99.90;;;;;;5055106;28;37985;-60
2022/08/03 01:36:33;;;;;;;7.03;1.75;;;19.60;99.90;;;;;;5053613;28;37578;-60
2022/08/03 01:39:03;;;;;;;8.73;1.60;;;19.60;99.90;;;;;;5053345;28;37368;-60
2022/08/03 01:41:34;;;;;;;8.00;2.03;;;19.60;99.90;;;;;;5054035;28;36560;-60
2022/08/03 01:44:03;;;;;;;7.88;1.77;;;19.60;99.90;;;;;;5053960;28;37464;-60
2022/08/03 01:46:33;;;;;;;7.68;1.42;;;19.60;99.90;;;;;;5054552;28;37860;-60
2022/08/03 01:49:01;;;;;;;8.70;2.03;;;19.60;99.90;;;;;;5054352;28;35560;-60
2022/08/03 01:51:29;;;;;;;5.63;1.35;;;19.60;99.90;;;;;;5053101;28;35375;-61
2022/08/03 01:53:58;;;;;;;8.05;1.88;;;19.60;99.90;;;;;;5053824;28;38106;-61
2022/08/03 01:56:27;;;;;;;7.38;1.90;;;19.60;99.90;;;;;;5053442;28;36493;-61
2022/08/03 01:58:56;;;;;;;12.15;2.08;;;19.60;99.90;;;;;;5054634;28;37194;-60
2022/08/03 02:01:25;;;;;;;8.82;1.83;;;19.50;99.90;;;;;;5053773;28;36289;-61
2022/08/03 02:03:57;;;;;;;8.93;1.83;;;19.50;99.90;;;;;;5051306;28;38336;-61
2022/08/03 02:06:26;;;;;;;6.40;2.17;;;19.50;99.90;;;;;;5051619;28;38808;-60
2022/08/03 02:08:54;;;;;;;10.88;2.20;;;19.50;99.90;;;;;;5053581;28;38006;-62
2022/08/03 02:11:22;;;;;;;9.82;1.95;;;19.50;99.90;;;;;;5056279;28;36161;-60
2022/08/03 02:13:51;;;;;;;8.30;2.13;;;19.50;99.90;;;;;;5056793;28;38723;-60
2022/08/03 02:16:22;;;;;;;9.60;1.83;;;19.50;99.90;;;;;;5057356;28;40716;-61
2022/08/03 02:18:50;;;;;;;7.53;1.65;;;19.50;99.90;;;;;;5056725;28;37613;-60
2022/08/03 02:21:19;;;;;;;6.65;1.80;;;19.50;99.90;;;;;;5056359;28;37515;-60
2022/08/03 02:23:46;;;;;;;8.50;1.95;;;19.40;99.90;;;;;;5057382;28;37528;-60
2022/08/03 02:26:17;;;;;;;10.10;2.35;;;19.40;99.90;;;;;;5055765;28;38648;-60
2022/08/03 02:28:48;;;;;;;7.43;1.88;;;19.40;99.90;;;;;;5057193;28;36883;-60
2022/08/03 02:31:19;;;;;;;8.48;1.98;;;19.40;99.90;;;;;;5056973;28;39005;-61
2022/08/03 02:33:50;;;;;;;8.10;2.00;;;19.40;99.90;;;;;;5056783;28;38037;-61
2022/08/03 02:36:21;;;;;;;6.07;1.63;;;19.40;99.90;;;;;;5055857;28;37919;-60
2022/08/03 02:38:54;;;;;;;5.05;1.13;;;19.40;99.90;;;;;;5056955;28;37760;-61
2022/08/03 02:41:30;;;;;;;7.47;1.67;;;19.40;99.90;;;;;;5056221;28;37366;-60
2022/08/03 02:44:00;;;;;;;6.18;1.65;;;19.40;99.90;;;;;;5055997;28;37528;-60
2022/08/03 02:46:32;;;;;;;10.65;1.95;;;19.30;99.90;;;;;;5054993;28;37186;-61
2022/08/03 02:49:02;;;;;;;6.85;2.03;;;19.40;99.90;;;;;;5055452;28;37896;-61
2022/08/03 02:51:33;;;;;;;9.40;2.13;;;19.40;99.90;;;;;;5054757;28;36361;-60
2022/08/03 02:54:03;;;;;;;8.68;2.20;;;19.30;99.90;;;;;;5056395;28;37601;-60
2022/08/03 02:56:31;;;;;;;8.65;2.28;;;19.30;99.90;;;;;;5056932;28;37975;-60
2022/08/03 02:58:59;;;;;;;6.85;1.90;;;19.30;99.90;;;;;;5054982;28;38388;-60
2022/08/03 03:01:28;;;;;;;8.50;1.98;;;19.30;99.90;;;;;;5056193;28;36796;-60
2022/08/03 03:03:57;;;;;;;5.97;1.75;;;19.30;99.90;;;;;;5057146;28;37662;-61
2022/08/03 03:06:26;;;;;;;6.47;1.95;;;19.30;99.90;;;;;;5055342;28;37820;-60
2022/08/03 03:08:56;;;;;;;8.85;1.85;;;19.30;99.90;;;;;;5055612;28;37750;-60
2022/08/03 03:11:25;;;;;;;8.20;1.95;;;19.30;99.90;;;;;;5055766;28;36839;-60
2022/08/03 03:13:53;;;;;;;8.88;2.10;;;19.30;99.90;;;;;;5056609;28;37804;-60
2022/08/03 03:16:21;;;;;;;11.52;1.92;;;19.30;99.90;;;;;;5055338;28;37699;-60
2022/08/03 03:18:50;;;;;;;7.93;1.65;;;19.30;99.90;;;;;;5056518;28;37417;-60
2022/08/03 03:21:19;;;;;;;12.15;1.98;;;19.20;99.90;;;;;;5055532;28;36382;-61
2022/08/03 03:23:47;;;;;;;9.55;2.15;;;19.30;99.90;;;;;;5056831;28;37040;-60
2022/08/03 03:26:16;;;;;;;7.53;1.92;;;19.20;99.90;;;;;;5055906;28;38256;-60
2022/08/03 03:28:45;;;;;;;8.70;1.85;;;19.30;99.90;;;;;;5056464;28;36843;-61
2022/08/03 03:31:12;;;;;;;8.38;2.20;;;19.20;99.90;;;;;;5055471;28;41120;-61
2022/08/03 03:33:39;;;;;;;8.93;2.13;;;19.20;99.90;;;;;;5056587;28;38157;-61
2022/08/03 03:36:08;;;;;;;8.20;2.05;;;19.20;99.90;;;;;;5054818;28;36364;-60
2022/08/03 03:38:36;;;;;;;8.20;2.28;;;19.20;99.90;;;;;;5057059;28;36212;-60
2022/08/03 03:41:04;;;;;;;10.52;2.03;;;19.20;99.90;;;;;;5055068;28;37342;-60
2022/08/03 03:43:33;;;;;;;7.07;2.03;;;19.20;99.90;;;;;;5055108;28;40132;-60
2022/08/03 03:46:01;;;;;;;12.35;1.92;;;19.20;99.90;;;;;;5055964;28;36757;-60
2022/08/03 03:48:29;;;;;;;8.02;1.95;;;19.20;99.90;;;;;;5056803;28;38294;-60
2022/08/03 03:50:58;;;;;;;8.00;1.95;;;19.20;99.90;;;;;;5054682;28;37834;-61
2022/08/03 03:53:25;;;;;;;7.70;1.90;;;19.10;99.90;;;;;;5055386;28;37342;-61
2022/08/03 03:55:53;;;;;;;8.63;2.53;;;19.20;99.90;;;;;;5054644;28;38267;-60
2022/08/03 03:58:20;;;;;;;9.88;2.17;;;19.20;99.90;;;;;;5055170;28;36440;-60
2022/08/03 04:00:49;;;;;;;9.38;2.10;;;19.10;99.90;;;;;;5056259;28;36857;-60
2022/08/03 04:03:16;;;;;;;5.70;2.15;;;19.10;99.90;;;;;;5056116;28;37126;-60
2022/08/03 04:11:18;;;;;;;6.97;2.03;;;19.10;99.90;;;;;;5054671;28;37899;-60
2022/08/03 04:13:51;;;;;;;9.88;2.20;;;19.10;99.90;;;;;;5056348;28;37641;-60
2022/08/03 04:16:23;;;;;;;6.68;2.30;;;19.10;99.90;;;;;;5055929;28;40079;-61
2022/08/03 04:18:55;;;;;;;10.17;2.57;;;19.10;99.90;;;;;;5055531;28;37968;-60
2022/08/03 04:21:24;;;;;;;8.68;2.38;;;19.20;99.90;;;;;;5056018;28;35207;-61
2022/08/03 04:23:55;;;;;;;6.25;2.25;;;19.20;99.90;;;;;;5055152;28;36274;-61
2022/08/03 04:26:27;;;;;;;9.73;2.22;;;19.20;99.90;;;;;;5055542;28;36220;-60
2022/08/03 04:28:54;;;;;;;8.23;2.35;;;19.20;99.90;;;;;;5055717;28;36037;-60
2022/08/03 04:31:26;;;;;;;9.50;2.08;;;19.30;99.90;;;;;;5056362;28;37265;-60
2022/08/03 04:33:54;;;;;;;6.90;1.88;;;19.30;99.90;;;;;;5053476;28;36975;-60
2022/08/03 04:36:24;;;;;;;7.45;2.28;;;19.30;99.90;;;;;;5054744;28;39659;-60
2022/08/03 04:39:00;;;;;;;9.70;2.60;;;19.40;99.90;;;;;;5054305;28;38451;-61
2022/08/03 04:41:28;;;;;;;7.68;2.03;;;19.40;99.90;;;;;;5053886;28;36688;-60
2022/08/03 04:43:59;;;;;;;9.48;2.65;;;19.40;99.90;;;;;;5055435;28;37273;-60
2022/08/03 04:46:31;;;;;;;10.25;2.75;;;19.40;99.90;;;;;;5054732;28;37610;-60
2022/08/03 04:48:59;;;;;;;8.73;2.10;;;19.50;99.90;;;;;;5055001;28;38154;-61
2022/08/03 04:51:27;;;;;;;9.80;3.15;;;19.60;99.90;;;;;;5054287;28;36566;-62
2022/08/03 04:53:55;;;;;;;10.05;2.90;;;19.70;99.90;;;;;;5053362;28;37790;-61
2022/08/03 04:56:22;;;;;;;9.75;2.10;;;19.80;99.90;;;;;;5055507;28;36358;-61
2022/08/03 04:58:49;;;;;;;8.88;2.70;;;19.90;99.90;;;;;;5055330;28;37122;-60
2022/08/03 05:01:19;;;;;;;10.20;2.35;;;20.00;99.90;;;;;;5055583;28;36379;-60
2022/08/03 05:03:47;;;;;;;8.57;2.20;;;20.00;99.90;;;;;;5055082;28;38248;-61
2022/08/03 05:06:15;;;;;;;8.50;2.30;;;20.10;99.90;;;;;;5054124;28;37978;-61
2022/08/03 05:08:42;;;;;;;9.05;2.10;;;20.20;99.90;;;;;;5054182;28;37237;-60
2022/08/03 05:11:09;;;;;;;9.80;2.33;;;20.30;99.90;;;;;;5054278;28;35898;-61
2022/08/03 05:13:36;;;;;;;10.50;2.40;;;20.30;99.90;;;;;;5051204;28;37538;-61
2022/08/03 05:16:04;;;;;;;8.18;2.03;;;20.30;99.90;;;;;;5055117;28;36420;-60
2022/08/03 05:18:32;;;;;;;7.45;2.25;;;20.40;99.90;;;;;;5054094;28;37828;-60
2022/08/03 05:21:01;;;;;;;9.80;2.92;;;20.50;99.90;;;;;;5054186;28;37804;-61
2022/08/03 05:23:28;;;;;;;8.55;2.17;;;20.60;99.90;;;;;;5053754;28;36371;-61
2022/08/03 05:25:56;;;;;;;7.13;2.53;;;20.60;99.90;;;;;;5052689;28;39020;-61
2022/08/03 05:28:23;;;;;;;10.57;2.80;;;20.70;99.90;;;;;;5054391;28;37765;-60
2022/08/03 05:30:50;;;;;;;10.40;2.50;;;20.90;99.90;;;;;;5053985;28;36740;-61
2022/08/03 05:33:18;;;;;;;7.80;2.78;;;21.00;99.90;;;;;;5055273;28;36311;-61
2022/08/03 05:35:45;;;;;;;10.00;2.50;;;21.10;99.90;;;;;;5053399;28;37009;-61
2022/08/03 05:38:14;;;;;;;10.30;2.88;;;21.20;99.90;;;;;;5054497;28;38407;-60
2022/08/03 05:40:41;;;;;;;9.32;2.53;;;21.20;99.90;;;;;;5054098;28;36731;-60
2022/08/03 05:43:08;;;;;;;9.38;2.33;;;21.30;99.90;;;;;;5054989;28;38302;-63
2022/08/03 05:45:38;;;;;;;9.77;2.35;;;21.40;99.90;;;;;;5054146;28;38499;-63
2022/08/03 05:48:05;;;;;;;8.73;3.03;;;21.40;99.90;;;;;;5054082;28;39774;-63
2022/08/03 05:50:34;;;;;;;8.20;2.20;;;21.50;99.90;;;;;;5054645;28;38260;-63
2022/08/03 05:53:02;;;;;;;10.82;2.50;;;21.60;99.90;;;;;;5052235;28;36873;-63
2022/08/03 05:55:31;;;;;;;9.07;2.47;;;21.60;99.90;;;;;;5054679;28;38429;-63
2022/08/03 05:57:58;;;;;;;16.25;3.83;;;21.80;99.90;;;;;;5053677;28;37443;-63
2022/08/03 06:00:25;;;;;;;11.35;2.35;;;21.80;99.90;;;;;;5054714;28;36611;-64
2022/08/03 06:02:53;;;;;;;8.38;2.38;;;22.00;99.90;;;;;;5053834;28;39277;-63
2022/08/03 06:05:20;;;;;;;12.20;2.65;;;22.10;99.90;;;;;;5054120;28;38407;-61
2022/08/03 06:07:48;;;;;;;8.00;2.38;;;22.10;99.90;;;;;;5053021;28;37217;-61
2022/08/03 06:10:15;;;;;;;10.93;2.67;;;22.10;99.90;;;;;;5052497;28;35211;-61
2022/08/03 06:12:46;;;;;;;11.23;2.72;;;22.20;99.90;;;;;;5052663;28;38753;-61
2022/08/03 06:15:14;;;;;;;10.40;2.33;;;22.20;99.90;;;;;;5053837;28;38116;-61
2022/08/03 06:17:48;;;;;;;8.60;2.72;;;22.20;99.90;;;;;;5053665;28;36273;-61
2022/08/03 06:20:18;;;;;;;9.15;2.42;;;22.10;99.90;;;;;;5052825;28;35166;-61
2022/08/03 06:22:45;;;;;;;7.82;2.17;;;22.10;99.90;;;;;;5052611;28;39555;-61
2022/08/03 06:25:13;;;;;;;12.60;2.88;;;22.20;99.90;;;;;;5053237;28;36452;-61
2022/08/03 06:27:40;;;;;;;13.50;2.58;;;22.20;99.90;;;;;;5052697;28;37885;-61
2022/08/03 06:30:11;;;;;;;13.07;2.60;;;22.40;99.90;;;;;;5053719;28;37057;-61
2022/08/03 06:32:39;;;;;;;10.25;2.08;;;22.60;99.90;;;;;;5053352;28;36453;-61
2022/08/03 06:35:08;;;;;;;12.05;2.95;;;22.70;99.90;;;;;;5053158;28;37871;-61
2022/08/03 06:37:43;;;;;;;8.85;2.60;;;22.60;99.90;;;;;;5053741;28;37474;-61
2022/08/03 06:40:12;;;;;;;11.45;2.20;;;22.60;99.90;;;;;;5052085;28;38084;-61
2022/08/03 06:42:39;;;;;;;11.43;2.92;;;22.60;99.90;;;;;;5052356;28;37814;-61
2022/08/03 06:45:09;;;;;;;11.88;3.28;;;22.60;99.90;;;;;;5053330;28;37529;-61
2022/08/03 06:47:37;;;;;;;10.18;2.60;;;22.60;99.90;;;;;;5053952;28;38135;-61
2022/08/03 06:50:06;;;;;;;12.43;2.60;;;22.60;99.90;;;;;;5051789;28;36553;-61
2022/08/03 06:52:33;;;;;;;11.10;2.90;;;22.70;99.90;;;;;;5052777;28;37459;-61
2022/08/03 06:55:01;;;;;;;12.00;2.90;;;22.70;99.90;;;;;;5052622;28;38574;-61
2022/08/03 06:57:28;;;;;;;11.10;3.10;;;22.70;99.90;;;;;;5055343;28;40040;-61
2022/08/03 07:00:00;;;;;;;10.68;3.13;;;22.80;99.90;;;;;;5055503;28;36645;-61
2022/08/03 07:02:29;;;;;;;10.55;2.63;;;22.80;99.90;;;;;;5057057;28;38301;-62
2022/08/03 07:04:57;;;;;;;11.30;3.08;;;22.80;99.90;;;;;;5055000;28;38071;-61
2022/08/03 07:07:25;;;;;;;12.98;3.17;;;22.80;99.90;;;;;;5054897;28;38018;-61
2022/08/03 07:09:52;;;;;;;14.20;3.28;;;22.90;99.90;;;;;;5055958;28;35292;-61
2022/08/03 07:12:19;;;;;;;13.05;3.10;;;22.90;99.90;;;;;;5053569;28;37628;-61
2022/08/03 07:14:47;;;;;;;8.20;2.97;;;22.90;99.90;;;;;;5055658;28;38235;-61
2022/08/03 07:17:14;;;;;;;10.38;2.90;;;23.00;99.90;;;;;;5056413;28;35965;-61
2022/08/03 07:19:43;;;;;;;13.02;2.65;;;23.00;99.90;;;;;;5055746;28;36473;-61
2022/08/03 07:22:10;;;;;;;9.32;2.25;;;23.00;99.90;;;;;;5055874;28;37539;-61
2022/08/03 07:24:38;;;;;;;10.07;2.90;;;23.00;99.90;;;;;;5056481;28;37816;-61
2022/08/03 07:27:05;;;;;;;11.00;2.80;;;23.00;99.90;;;;;;5056083;28;36061;-61
2022/08/03 07:29:34;;;;;;;12.85;2.85;;;23.00;99.90;;;;;;5055366;28;36743;-62
2022/08/03 07:32:02;;;;;;;10.88;3.00;;;23.00;99.90;;;;;;5056198;28;37646;-61
2022/08/03 07:34:29;;;;;;;13.75;3.22;;;23.00;99.90;;;;;;5053743;28;38952;-61
2022/08/03 07:36:58;;;;;;;12.65;3.50;;;23.00;99.90;;;;;;5057102;28;37847;-61
2022/08/03 07:39:25;;;;;;;9.57;2.78;;;23.00;99.90;;;;;;5056484;28;35352;-61
2022/08/03 07:41:52;;;;;;;14.40;3.30;;;23.00;99.90;;;;;;5056189;28;37598;-61
2022/08/03 07:44:20;;;;;;;10.10;2.55;;;23.10;99.90;;;;;;5056180;28;38612;-61
2022/08/03 07:46:49;;;;;;;12.32;3.30;;;23.10;99.90;;;;;;5053141;28;39327;-61
2022/08/03 07:49:16;;;;;;;11.70;2.30;;;23.10;99.90;;;;;;5055675;28;37440;-61
2022/08/03 07:51:44;;;;;;;13.05;3.55;;;23.10;99.90;;;;;;5054530;28;37228;-61
2022/08/03 07:54:13;;;;;;;10.75;3.22;;;23.10;99.90;;;;;;5053389;28;37595;-61
2022/08/03 07:56:40;;;;;;;14.32;3.75;;;23.20;99.90;;;;;;5055209;28;37484;-62
2022/08/03 07:59:08;;;;;;;11.52;3.40;;;23.20;99.90;;;;;;5055607;28;37124;-62
2022/08/03 08:01:36;;;;;;;10.65;3.00;;;23.30;99.90;;;;;;5053563;28;37194;-64
2022/08/03 08:04:04;;;;;;;12.43;3.20;;;23.30;99.90;;;;;;5052004;28;36585;-64
2022/08/03 08:06:32;;;;;;;9.10;2.92;;;23.30;99.90;;;;;;5055138;28;37338;-61
2022/08/03 08:09:01;;;;;;;11.95;3.17;;;23.40;99.90;;;;;;5053602;28;36346;-61
2022/08/03 08:11:29;;;;;;;11.07;3.10;;;23.40;99.90;;;;;;5054390;28;38533;-61
2022/08/03 08:13:57;;;;;;;15.20;3.08;;;23.40;99.90;;;;;;5056273;28;37293;-61
2022/08/03 08:16:24;;;;;;;10.90;2.90;;;23.50;99.90;;;;;;5053692;28;37654;-61
2022/08/03 08:18:51;;;;;;;7.10;2.60;;;23.50;99.90;;;;;;5053830;28;35366;-61
2022/08/03 08:21:19;;;;;;;14.05;3.15;;;23.50;99.90;;;;;;5054891;28;39315;-61
2022/08/03 08:23:46;;;;;;;10.40;2.53;;;23.60;99.90;;;;;;5054351;28;37615;-61
2022/08/03 08:26:14;;;;;;;7.50;2.70;;;23.60;99.90;;;;;;5052606;28;37235;-61
2022/08/03 08:28:43;;;;;;;10.10;3.20;;;23.70;99.90;;;;;;5053962;28;37718;-61
2022/08/03 08:31:10;;;;;;;11.48;3.03;;;23.70;99.90;;;;;;5050347;28;37894;-61
2022/08/03 08:33:37;;;;;;;9.93;2.83;;;23.70;99.90;;;;;;5053972;28;37839;-61
2022/08/03 08:36:05;;;;;;;8.60;3.35;;;23.80;99.90;;;;;;5052360;28;36088;-61
2022/08/03 08:38:34;;;;;;;10.05;3.42;;;23.90;99.90;;;;;;5052437;28;35895;-62
2022/08/03 08:41:01;;;;;;;8.48;2.90;;;23.90;99.90;;;;;;5054124;28;37334;-61
2022/08/03 08:43:29;;;;;;;9.68;2.95;;;24.00;99.90;;;;;;5053447;28;38031;-62
2022/08/03 08:45:59;;;;;;;8.40;2.92;;;24.00;99.90;;;;;;5052271;28;37264;-61
2022/08/03 08:48:27;;;;;;;12.50;3.72;;;24.10;99.90;;;;;;5053835;28;35873;-61
2022/08/03 08:50:56;;;;;;;7.22;2.83;;;24.20;99.90;;;;;;5054680;28;37735;-61
2022/08/03 08:53:26;;;;;;;12.48;3.70;;;24.20;99.90;;;;;;5054044;28;37307;-61
2022/08/03 08:55:55;;;;;;;14.65;3.38;;;24.30;99.90;;;;;;5052905;28;37302;-62
2022/08/03 08:58:23;;;;;;;9.23;3.53;;;24.30;99.90;;;;;;5054651;28;37271;-61
2022/08/03 09:00:51;;;;;;;8.93;3.33;;;24.40;99.90;;;;;;5054162;28;38469;-61
2022/08/03 09:03:20;;;;;;;11.30;3.72;;;24.40;99.90;;;;;;5053233;28;37992;-61
2022/08/03 09:05:48;;;;;;;7.68;3.17;;;24.40;99.90;;;;;;5054461;28;37292;-61
2022/08/03 09:08:16;;;;;;;13.13;4.28;;;24.50;99.90;;;;;;5054786;28;37176;-61
2022/08/03 09:10:44;;;;;;;11.88;3.22;;;24.70;99.90;;;;;;5054622;28;38131;-61
2022/08/03 09:13:11;;;;;;;9.25;3.47;;;24.80;99.90;;;;;;5052379;28;37895;-61
2022/08/03 09:15:39;;;;;;;11.00;3.47;;;24.80;99.90;;;;;;5053095;28;38387;-61
2022/08/03 09:18:08;;;;;;;11.18;3.15;;;24.80;99.90;;;;;;5053449;28;35407;-61
2022/08/03 09:20:36;;;;;;;11.13;3.15;;;24.80;99.90;;;;;;5050824;28;39294;-61
2022/08/03 09:23:07;;;;;;;12.77;3.50;;;24.90;99.90;;;;;;5053940;28;37917;-61
2022/08/03 09:25:37;;;;;;;14.48;3.83;;;25.00;99.90;;;;;;5052303;28;38719;-61
2022/08/03 09:28:07;;;;;;;11.35;3.88;;;25.10;99.90;;;;;;5051878;28;37283;-61
2022/08/03 09:30:35;;;;;;;11.60;3.20;;;25.30;99.90;;;;;;5053123;28;37163;-61
2022/08/03 09:33:03;;;;;;;13.65;3.65;;;25.40;99.90;;;;;;5054176;28;37769;-62
2022/08/03 09:35:31;;;;;;;12.85;3.70;;;25.40;99.90;;;;;;5053282;28;37333;-62
2022/08/03 09:38:13;;;;;;;12.05;3.78;;;25.60;99.90;;;;;;5054133;28;37075;-61
2022/08/03 09:40:41;;;;;;;10.02;4.10;;;25.70;99.90;;;;;;5052387;28;36225;-61
2022/08/03 09:43:09;;;;;;;9.93;3.75;;;25.70;99.90;;;;;;5051955;28;38218;-61
2022/08/03 09:45:37;;;;;;;15.45;3.58;;;25.60;99.90;;;;;;5049486;28;37379;-61
2022/08/03 09:48:24;;;;;;;11.15;3.80;;;25.70;99.90;;;;;;5049787;28;37060;-61
2022/08/03 09:50:53;;;;;;;14.32;3.78;;;25.70;99.90;;;;;;5051768;28;38800;-61
2022/08/03 09:53:23;;;;;;;11.57;3.80;;;25.80;99.90;;;;;;5052983;28;37914;-61
2022/08/03 09:55:52;;;;;;;10.20;4.53;;;25.80;99.90;;;;;;5051921;28;38145;-61
2022/08/03 09:58:21;;;;;;;10.27;4.25;;;25.90;99.90;;;;;;5053203;28;36073;-62
2022/08/03 10:00:56;;;;;;;8.68;3.35;;;25.90;99.90;;;;;;5051611;28;37677;-61
2022/08/03 10:03:25;;;;;;;11.85;4.18;;;26.00;99.90;;;;;;5053507;28;37804;-61
2022/08/03 10:05:52;;;;;;;11.63;4.18;;;26.10;99.90;;;;;;5050956;28;37510;-62
2022/08/03 10:08:21;;;;;;;10.88;3.75;;;26.10;99.90;;;;;;5051597;28;36566;-62
2022/08/03 10:10:52;;;;;;;10.90;4.57;;;26.20;99.90;;;;;;5051564;28;39126;-61
2022/08/03 10:13:20;;;;;;;12.85;3.42;;;26.20;99.90;;;;;;5049853;28;38733;-61
2022/08/03 10:15:48;;;;;;;10.75;3.30;;;26.30;99.90;;;;;;5042460;28;37939;-61
2022/08/03 10:18:15;;;;;;;13.50;3.33;;;26.30;99.90;;;;;;5036178;28;36779;-61
2022/08/03 10:20:48;;;;;;;13.00;3.95;;;26.40;99.90;;;;;;5032949;28;37072;-62
2022/08/03 10:23:17;;;;;;;;;;;26.50;99.90;;;;;;5034069;28;37676;-62
2022/08/03 10:25:47;;;;;;;12.98;3.33;;;26.50;99.90;;;;;;5030565;28;36783;-61
2022/08/03 10:28:18;;;;;;;13.38;3.40;;;26.50;99.90;;;;;;5029387;28;36965;-62
2022/08/03 10:30:50;;;;;;;14.18;4.00;;;26.60;99.90;;;;;;5032763;28;37455;-62
2022/08/03 10:33:22;;;;;;;14.77;3.60;;;26.60;99.90;;;;;;5035544;28;37670;-61
2022/08/03 10:35:54;;;;;;;15.60;3.93;;;26.60;99.90;;;;;;5034885;28;37734;-61
2022/08/03 10:38:29;;;;;;;10.52;3.72;;;26.60;99.90;;;;;;5035835;28;37704;-61
2022/08/03 10:40:59;;;;;;;9.52;2.88;;;26.70;99.90;;;;;;5034352;28;38487;-61
2022/08/03 10:43:30;;;;;;;16.90;4.65;;;26.70;99.90;;;;;;5036422;28;37600;-62
2022/08/03 10:45:59;;;;;;;13.07;3.40;;;26.70;99.90;;;;;;5034991;28;37218;-61
2022/08/03 10:48:27;;;;;;;17.05;3.88;;;26.80;99.90;;;;;;5036248;28;37421;-61
2022/08/03 10:50:54;;;;;;;16.90;4.65;;;26.90;99.90;;;;;;5035493;28;38580;-61
2022/08/03 10:53:35;;;;;;;13.40;4.32;;;26.90;99.60;;;;;;5035716;28;37980;-62
2022/08/03 10:58:53;;;;;;;13.48;3.65;;;27.00;98.70;;;;;;4996162;28;37179;-60
2022/08/03 11:01:49;;;;;;;13.55;4.50;;;27.00;98.80;;;;;;5031126;28;39562;-61
2022/08/03 11:04:18;;;;;;;13.05;4.47;;;27.00;98.30;;;;;;5033540;28;36352;-61
2022/08/03 11:06:47;;;;;;;16.42;4.72;;;26.90;98.70;;;;;;5032689;28;38732;-61
2022/08/03 11:09:17;;;;;;;18.98;5.15;;;26.90;98.80;;;;;;5034938;28;35349;-61
2022/08/03 11:11:47;;;;;;;11.38;4.13;;;27.00;98.80;;;;;;5034639;28;37460;-61
2022/08/03 11:14:17;;;;;;;13.73;4.43;;;27.00;98.90;;;;;;5033844;28;37756;-60
2022/08/03 11:16:46;;;;;;;13.88;4.45;;;27.00;98.70;;;;;;5034767;28;38233;-61
2022/08/03 11:19:16;;;;;;;14.25;4.78;;;27.00;98.60;;;;;;5033185;28;35347;-60
2022/08/03 11:21:54;;;;;;;13.98;4.60;;;27.10;98.60;;;;;;5033935;28;37745;-61
2022/08/03 11:24:59;;;;;;;17.23;4.72;;;27.10;98.40;;;;;;5033907;28;38198;-61
2022/08/03 11:27:32;;;;;;;15.38;4.55;;;27.10;98.30;;;;;;5035919;28;37142;-60
2022/08/03 11:30:06;;;;;;;14.15;4.90;;;27.20;98.10;;;;;;5035130;28;36569;-60
2022/08/03 11:33:01;;;;;;;19.80;5.18;;;27.20;98.10;;;;;;5035038;28;37347;-61
2022/08/03 11:35:30;;;;;;;12.68;4.55;;;27.20;97.70;;;;;;5036866;28;38410;-62
2022/08/03 11:38:23;;;;;;;16.35;5.30;;;27.20;98.00;;;;;;5036116;28;36095;-61
2022/08/03 11:40:52;;;;;;;14.98;4.15;;;27.20;98.20;;;;;;5034099;28;36852;-62
2022/08/03 11:43:46;;;;;;;14.38;5.28;;;27.30;98.40;;;;;;5034892;28;36189;-62
2022/08/03 11:46:17;;;;;;;14.35;4.68;;;27.30;98.50;;;;;;5036298;28;37890;-61
2022/08/03 11:48:46;;;;;;;15.73;4.78;;;27.30;98.20;;;;;;5036167;28;38590;-61
2022/08/03 11:51:21;;;;;;;14.27;4.63;;;27.30;98.30;;;;;;5035006;28;37507;-62
2022/08/03 11:53:52;;;;;;;15.88;5.18;;;27.30;98.10;;;;;;5033042;28;37803;-61
2022/08/03 11:56:20;;;;;;;14.23;4.57;;;27.30;97.80;;;;;;5032810;28;39128;-62
2022/08/03 11:58:50;;;;;;;11.70;5.40;;;27.30;98.10;;;;;;5036125;28;37207;-62
2022/08/03 12:01:18;;;;;;;17.70;4.78;;;27.40;98.20;;;;;;5036980;28;35404;-62
2022/08/03 12:03:46;;;;;;;14.15;5.15;;;27.40;98.30;;;;;;5035912;28;39825;-62
2022/08/03 12:06:14;;;;;;;16.70;4.53;;;27.40;98.20;;;;;;5035207;28;39250;-62
2022/08/03 12:08:44;;;;;;;18.05;4.60;;;27.40;98.10;;;;;;5033199;28;37447;-62
2022/08/03 12:11:12;;;;;;;18.95;4.95;;;27.30;97.80;;;;;;5034293;28;36721;-61
2022/08/03 12:13:42;;;;;;;15.57;4.53;;;27.40;98.00;;;;;;5034769;28;37981;-61
2022/08/03 12:16:16;;;;;;;14.38;4.00;;;27.30;97.80;;;;;;5043171;28;38337;-61
2022/08/03 12:18:44;;;;;;;13.60;4.00;;;27.30;97.70;;;;;;5044841;28;36333;-63
2022/08/03 12:21:12;;;;;;;16.52;4.63;;;27.30;97.90;;;;;;5049546;28;36950;-61
2022/08/03 12:23:39;;;;;;;15.63;4.13;;;27.30;97.70;;;;;;5044035;28;37934;-62
2022/08/03 12:26:09;;;;;;;13.50;3.80;;;27.40;97.80;;;;;;5047692;28;37902;-62
2022/08/03 12:28:37;;;;;;;19.52;5.35;;;27.40;97.80;;;;;;5046881;28;37192;-62
2022/08/03 12:31:08;;;;;;;16.63;4.47;;;27.40;97.30;;;;;;5045138;28;36956;-61
2022/08/03 12:33:58;;;;;;;20.80;4.28;;;27.40;96.90;;;;;;5045583;28;38122;-62
2022/08/03 12:36:26;;;;;;;15.88;4.47;;;27.30;96.30;;;;;;5046047;28;38882;-62
2022/08/03 12:38:57;;;;;;;17.20;4.25;;;27.30;96.40;;;;;;5044886;28;37510;-61
2022/08/03 12:41:30;;;;;;;12.15;4.32;;;27.30;96.30;;;;;;5041586;28;38697;-61
2022/08/03 12:43:58;;;;;;;13.85;4.47;;;27.30;96.60;;;;;;5044452;28;37655;-61
2022/08/03 12:46:34;;;;;;;15.82;5.55;;;27.20;96.60;;;;;;5048640;28;37618;-62
2022/08/03 12:49:09;;;;;;;18.73;4.88;;;27.20;96.40;;;;;;5046185;28;36135;-62
2022/08/03 12:51:55;;;;;;;16.88;4.22;;;27.20;96.10;;;;;;5043389;28;36510;-61
2022/08/03 12:54:24;;;;;;;14.18;5.03;;;27.20;96.10;;;;;;5044379;28;37060;-61
2022/08/03 12:56:57;;;;;;;11.10;3.92;;;27.10;96.20;;;;;;5043862;28;37656;-61
2022/08/03 12:59:25;;;;;;;16.65;5.05;;;27.10;96.10;;;;;;5050136;28;37675;-61
2022/08/03 13:01:53;;;;;;;14.15;3.85;;;27.00;95.90;;;;;;5041674;28;37606;-62
2022/08/03 13:04:28;;;;;;;17.90;5.00;;;27.00;95.80;;;;;;5045099;28;37411;-62